This is the latest recevied weather packets stored in our database for station/object VK3BKO-13. If no packets are shown the sender has not sent any weather packets the latest 10 day(s).
| Time | Temp. | Humidity | Pressure | Rain* | Wind** | Luminosity | Snow |
|---|---|---|---|---|---|---|---|
| 1777528023 | 24.44° C | 42% | 1023.7 hPa | 0 mm | - | 117 W/m² | - |
| 1777527123 | 24.44° C | 42% | 1023.7 hPa | 0 mm | - | 109 W/m² | - |
| 1777526224 | 25.56° C | 40% | 1023.7 hPa | 0 mm | - | 123 W/m² | - |
| 1777525324 | 26.11° C | 41% | 1023.7 hPa | 0 mm | - | 224 W/m² | - |
| 1777524424 | 26.11° C | 41% | 1024.1 hPa | 0 mm | - | 243 W/m² | - |
| 1777523524 | 25.56° C | 42% | 1023.7 hPa | 0 mm | - | 250 W/m² | - |
| 1777522624 | 25.56° C | 44% | 1024.1 hPa | 0 mm | - | 289 W/m² | - |
| 1777521723 | 24.44° C | 45% | 1024.1 hPa | 0 mm | - | 452 W/m² | - |
| 1777520823 | 24.44° C | 47% | 1024.4 hPa | 0 mm | - | 278 W/m² | - |
| 1777519924 | 23.89° C | 47% | 1024.4 hPa | 0 mm | - | 254 W/m² | - |
| 1777519024 | 23.89° C | 45% | 1024.8 hPa | 0 mm | - | 246 W/m² | - |
| 1777518124 | 24.44° C | 45% | 1024.8 hPa | 0 mm | - | 443 W/m² | - |
| 1777517224 | 23.33° C | 48% | 1025.1 hPa | 0 mm | - | 270 W/m² | - |
| 1777516324 | 23.33° C | 48% | 1025.4 hPa | 0 mm | - | 230 W/m² | - |
| 1777515424 | 23.33° C | 49% | 1025.4 hPa | 0 mm | - | 243 W/m² | - |
| 1777514524 | 23.33° C | 48% | 1025.4 hPa | 0 mm | - | 244 W/m² | - |
| 1777513624 | 23.33° C | 47% | 1025.8 hPa | 0 mm | - | 277 W/m² | - |
| 1777512724 | 23.89° C | 46% | 1025.8 hPa | 0 mm | - | 435 W/m² | - |
| 1777511824 | 23.89° C | 47% | 1026.1 hPa | 0 mm | - | 281 W/m² | - |
| 1777510924 | 22.78° C | 49% | 1026.4 hPa | 0 mm | - | 306 W/m² | - |
| 1777510023 | 23.33° C | 49% | 1026.8 hPa | 0 mm | - | 326 W/m² | - |
| 1777509124 | 23.33° C | 50% | 1026.4 hPa | 0 mm | - | 332 W/m² | - |
| 1777508224 | 22.78° C | 49% | 1026.4 hPa | 0 mm | - | 376 W/m² | - |
| 1777507324 | 22.22° C | 51% | 1026.4 hPa | 0 mm | - | 375 W/m² | - |
| 1777506423 | 22.22° C | 53% | 1026.8 hPa | 0 mm | - | 272 W/m² | - |
* Rain latest hour (hover to see other rain measurements)
** Current wind speed in m/s (hover to see current wind gust speed)